Time;durP1;ratioP1;P1;durP2;ratioP2;P2;SDS_P1;SDS_P2;PMS_P1;PMS_P2;Temp;Humidity;BMP_temperature;BMP_pressure;BME280_temperature;BME280_humidity;BME280_pressure;Samples;Min_cycle;Max_cycle;Signal;HPM_P1;HPM_P2
2023/03/26 00:01:35;;;;;;;28.20;4.47;;;;;;;18.76;45.83;100746.28;5067748;28;20025;-70
2023/03/26 00:04:01;;;;;;;49.83;5.77;;;;;;;19.20;45.28;100741.69;5066894;28;20081;-69
2023/03/26 00:06:29;;;;;;;41.20;5.77;;;;;;;19.66;44.45;100744.75;5069978;28;20077;-69
2023/03/26 00:08:56;;;;;;;41.60;5.87;;;;;;;18.89;45.31;100740.47;5068985;28;20048;-71
2023/03/26 00:11:24;;;;;;;41.67;6.03;;;;;;;19.98;43.83;100737.84;5055055;28;20032;-70
2023/03/26 00:13:52;;;;;;;51.97;6.17;;;;;;;18.93;45.85;100739.38;5069816;28;20033;-70
2023/03/26 00:16:19;;;;;;;54.23;5.77;;;;;;;18.90;45.62;100736.88;5068612;28;20056;-70
2023/03/26 00:18:46;;;;;;;56.70;6.57;;;;;;;19.98;43.78;100732.53;5070138;28;20067;-71
2023/03/26 00:21:13;;;;;;;55.67;7.43;;;;;;;19.27;45.79;100729.84;5069950;28;20098;-71
2023/03/26 00:23:40;;;;;;;49.07;6.17;;;;;;;19.90;44.43;100725.94;5068790;28;20078;-71
2023/03/26 00:26:09;;;;;;;42.20;6.40;;;;;;;19.09;46.27;100721.00;5065335;28;20032;-70
2023/03/26 00:28:39;;;;;;;54.13;5.87;;;;;;;18.86;47.28;100719.38;5068880;28;20032;-70
2023/03/26 00:31:05;;;;;;;46.97;5.30;;;;;;;19.99;43.67;100714.84;5066443;28;20107;-70
2023/03/26 00:33:31;;;;;;;47.47;5.80;;;;;;;20.03;44.26;100713.75;5071346;28;20063;-70
2023/03/26 00:35:59;;;;;;;57.07;7.43;;;;;;;19.74;43.85;100708.13;5067415;28;20024;-70
2023/03/26 00:38:27;;;;;;;52.57;6.23;;;;;;;20.61;42.51;100693.03;5066720;28;20437;-69
2023/03/26 00:40:53;;;;;;;62.80;7.53;;;;;;;20.41;42.79;100702.91;5068384;28;20051;-70
2023/03/26 00:43:21;;;;;;;56.07;8.37;;;;;;;19.77;43.53;100702.66;5066979;28;20565;-69
2023/03/26 00:45:52;;;;;;;62.83;7.17;;;;;;;20.05;43.25;100693.31;5069283;28;20029;-69
2023/03/26 00:48:19;;;;;;;54.97;6.70;;;;;;;20.24;43.53;100695.00;5069054;28;20102;-69
2023/03/26 00:50:46;;;;;;;52.33;7.80;;;;;;;21.21;41.33;100678.25;5067088;28;20029;-69
2023/03/26 00:53:13;;;;;;;47.47;6.17;;;;;;;20.38;42.38;100676.53;5069707;28;20032;-69
2023/03/26 00:55:44;;;;;;;53.20;7.00;;;;;;;20.09;43.97;100680.75;5066536;28;20035;-69
2023/03/26 00:58:10;;;;;;;63.33;7.93;;;;;;;20.67;42.49;100671.44;5057141;28;20060;-69
2023/03/26 01:00:43;;;;;;;47.30;7.90;;;;;;;20.55;42.52;100670.31;5068863;28;20035;-69
2023/03/26 01:03:13;;;;;;;50.53;6.60;;;;;;;20.91;41.56;100663.09;5069601;28;20111;-70
2023/03/26 01:05:47;;;;;;;55.27;7.47;;;;;;;20.97;41.24;100662.75;5067561;28;20068;-69
2023/03/26 01:08:47;;;;;;;50.57;5.70;;;;;;;20.93;41.53;100661.22;5050508;28;20021;-70
2023/03/26 01:11:18;;;;;;;52.27;6.53;;;;;;;19.77;43.42;100668.19;5064579;28;20039;-69
2023/03/26 01:13:49;;;;;;;58.40;7.63;;;;;;;19.81;44.39;100669.78;5066737;28;20067;-70
2023/03/26 01:16:30;;;;;;;59.00;7.23;;;;;;;20.05;43.45;100661.47;5054427;28;20030;-69
2023/03/26 01:18:57;;;;;;;51.70;6.13;;;;;;;19.95;43.11;100661.09;5059070;28;20032;-70
2023/03/26 01:21:27;;;;;;;68.57;6.93;;;;;;;20.20;42.12;100659.81;5065660;28;20308;-69
2023/03/26 01:23:59;;;;;;;48.03;6.37;;;;;;;19.53;44.30;100662.31;5068943;28;20033;-69
2023/03/26 01:26:42;;;;;;;51.55;6.13;;;;;;;20.15;42.45;100649.44;5067809;28;20098;-69
2023/03/26 01:29:18;;;;;;;63.60;9.13;;;;;;;20.58;41.48;100634.78;5067374;28;20383;-69
2023/03/26 01:31:49;;;;;;;47.80;5.57;;;;;;;18.84;45.42;100644.47;5068330;28;20059;-70
2023/03/26 01:34:36;;;;;;;58.10;6.83;;;;;;;19.00;45.33;100642.84;5068467;28;20035;-69
2023/03/26 01:37:04;;;;;;;62.27;7.23;;;;;;;18.70;45.73;100624.81;5082254;28;20034;-68
2023/03/26 01:39:47;;;;;;;47.33;6.07;;;;;;;18.60;46.70;100624.38;5067716;28;20123;-69
2023/03/26 01:42:25;;;;;;;74.33;7.20;;;;;;;18.59;46.40;100616.53;5048803;28;20029;-69
2023/03/26 01:45:06;;;;;;;52.43;6.77;;;;;;;19.66;44.51;100620.16;5059475;28;20067;-69
2023/03/26 01:47:33;;;;;;;62.40;6.40;;;;;;;18.93;46.49;100612.28;5048224;28;20029;-68
2023/03/26 01:49:59;;;;;;;60.90;7.20;;;;;;;18.82;46.27;100610.97;5053030;28;20067;-69
2023/03/26 01:52:25;;;;;;;67.93;6.97;;;;;;;18.77;46.52;100610.34;5068453;28;20044;-69
2023/03/26 01:54:54;;;;;;;56.10;8.77;;;;;;;17.89;47.86;100606.38;5066990;28;20032;-70
2023/03/26 01:57:26;;;;;;;55.30;5.67;;;;;;;18.31;46.95;100596.63;5068400;28;20055;-70
2023/03/26 02:00:12;;;;;;;57.77;6.67;;;;;;;18.16;47.71;100599.97;5063509;28;20071;-71
2023/03/26 02:02:55;;;;;;;43.00;6.30;;;;;;;18.19;47.89;100597.16;5066679;28;20115;-70
2023/03/26 02:05:33;;;;;;;52.33;6.33;;;;;;;17.93;48.14;100599.22;5067105;28;20062;-70
2023/03/26 02:08:21;;;;;;;54.90;6.10;;;;;;;18.14;48.12;100595.59;5066775;28;20434;-70
2023/03/26 02:10:51;;;;;;;55.67;6.73;;;;;;;16.85;50.86;100601.03;5067090;28;20024;-69
2023/03/26 02:13:16;;;;;;;57.67;8.53;;;;;;;17.88;48.86;100594.09;5060394;28;20024;-69
2023/03/26 02:15:57;;;;;;;50.47;6.40;;;;;;;18.41;47.84;100587.34;5065349;28;20480;-70
2023/03/26 02:18:23;;;;;;;56.27;6.57;;;;;;;17.99;48.95;100583.06;5066857;28;20426;-69
2023/03/26 02:20:51;;;;;;;58.07;7.07;;;;;;;19.02;46.31;100577.41;5067484;28;20161;-69
2023/03/26 02:23:18;;;;;;;59.47;7.27;;;;;;;18.54;46.59;100581.47;5067148;28;20114;-69
2023/03/26 02:25:43;;;;;;;37.03;6.47;;;;;;;18.08;47.59;100572.09;5065378;28;20104;-69
2023/03/26 02:28:09;;;;;;;65.57;8.07;;;;;;;18.34;47.59;100569.16;5061244;28;20514;-71
2023/03/26 02:30:34;;;;;;;53.53;6.80;;;;;;;19.69;44.17;100559.00;5068304;28;20040;-70
2023/03/26 02:32:59;;;;;;;52.30;7.40;;;;;;;19.09;45.39;100573.50;5068276;28;20035;-69
2023/03/26 02:35:25;;;;;;;55.27;6.60;;;;;;;19.66;44.71;100561.81;5064782;28;20032;-69
2023/03/26 02:37:50;;;;;;;48.93;7.33;;;;;;;18.73;45.95;100566.41;5067273;28;20036;-69
2023/03/26 02:40:19;;;;;;;48.77;7.93;;;;;;;18.50;47.87;100558.72;5066785;28;20024;-70
2023/03/26 02:42:46;;;;;;;45.93;8.30;;;;;;;17.96;47.38;100554.13;5065043;28;20391;-69
2023/03/26 02:45:11;;;;;;;55.77;7.70;;;;;;;18.80;46.10;100551.94;5064553;28;20066;-70
2023/03/26 02:47:37;;;;;;;47.87;8.37;;;;;;;18.68;45.94;100552.53;5063402;28;20044;-69
2023/03/26 02:50:03;;;;;;;48.07;7.77;;;;;;;18.11;46.84;100547.28;5065970;28;20036;-70
2023/03/26 02:52:28;;;;;;;37.33;7.47;;;;;;;19.31;45.57;100551.25;5067621;28;20035;-70
2023/03/26 02:54:55;;;;;;;34.67;6.70;;;;;;;19.12;45.15;100553.97;5065558;28;20020;-69
2023/03/26 02:57:21;;;;;;;53.97;8.33;;;;;;;18.84;46.16;100549.16;5077236;28;20024;-69
2023/03/26 02:59:49;;;;;;;41.53;7.40;;;;;;;18.36;47.34;100547.00;5065931;28;20503;-70
2023/03/26 03:02:14;;;;;;;45.83;7.67;;;;;;;19.15;45.49;100546.72;5066891;28;20028;-70
2023/03/26 03:04:40;;;;;;;41.17;7.03;;;;;;;19.91;44.34;100537.53;5067072;28;20054;-71
2023/03/26 03:07:06;;;;;;;54.47;7.70;;;;;;;20.47;42.55;100530.06;5066772;28;20036;-71
2023/03/26 03:09:32;;;;;;;41.13;7.03;;;;;;;20.21;42.97;100541.25;5064804;28;20502;-70
2023/03/26 03:11:57;;;;;;;53.20;8.57;;;;;;;21.05;40.92;100538.31;5064907;28;20103;-71
2023/03/26 03:14:22;;;;;;;36.60;6.00;;;;;;;20.00;43.24;100522.91;5050828;28;20051;-70
2023/03/26 03:16:48;;;;;;;38.80;5.97;;;;;;;19.95;42.32;100524.97;5080869;28;20028;-70
2023/03/26 03:19:14;;;;;;;37.07;6.40;;;;;;;20.60;41.81;100521.38;5064920;28;20020;-71
2023/03/26 03:21:40;;;;;;;51.70;7.73;;;;;;;19.66;43.67;100525.56;5066405;28;20392;-70
2023/03/26 03:24:06;;;;;;;38.10;5.60;;;;;;;21.00;40.61;100513.78;5067041;28;20174;-71
2023/03/26 03:26:33;;;;;;;35.97;5.67;;;;;;;20.61;41.00;100515.16;5063838;28;20551;-70
2023/03/26 03:28:58;;;;;;;39.10;5.73;;;;;;;20.74;41.45;100507.34;5065897;28;20392;-70
2023/03/26 03:31:25;;;;;;;50.97;6.30;;;;;;;21.23;40.07;100514.25;5064362;28;20027;-71
2023/03/26 03:33:51;;;;;;;45.53;7.57;;;;;;;21.02;40.18;100507.44;5066610;28;20473;-69
2023/03/26 03:36:20;;;;;;;37.33;5.17;;;;;;;21.22;39.97;100512.53;5066076;28;20036;-71
2023/03/26 03:38:47;;;;;;;32.63;5.57;;;;;;;20.81;40.72;100512.22;5066108;28;20082;-71
2023/03/26 03:41:12;;;;;;;41.33;6.20;;;;;;;21.48;39.80;100503.81;5068219;28;20480;-71
2023/03/26 03:43:38;;;;;;;37.97;5.17;;;;;;;21.49;39.24;100500.22;5069666;28;20028;-69
2023/03/26 03:46:03;;;;;;;35.60;5.63;;;;;;;20.95;40.12;100499.91;5069903;28;20033;-71
2023/03/26 03:48:29;;;;;;;43.90;5.30;;;;;;;21.57;39.34;100493.59;5072432;28;20048;-69
2023/03/26 03:50:55;;;;;;;41.23;6.10;;;;;;;21.49;39.83;100489.59;5071070;28;20434;-70
2023/03/26 03:53:24;;;;;;;36.87;6.07;;;;;;;22.08;38.30;100485.97;5067753;28;20119;-71
2023/03/26 03:55:51;;;;;;;40.27;7.10;;;;;;;21.84;38.61;100475.94;5069644;28;20035;-70
2023/03/26 03:58:23;;;;;;;26.90;4.90;;;;;;;21.63;38.89;100485.25;5068785;28;20036;-69
2023/03/26 04:00:50;;;;;;;30.98;4.50;;;;;;;20.87;40.03;100478.25;5072875;28;20116;-70
2023/03/26 04:03:17;;;;;;;38.83;5.57;;;;;;;20.89;39.62;100479.88;5069122;28;20514;-69
2023/03/26 04:05:48;;;;;;;31.37;4.80;;;;;;;21.50;39.11;100479.78;5068133;28;20031;-69
2023/03/26 04:08:15;;;;;;;29.60;4.80;;;;;;;21.39;39.80;100467.19;5068564;28;20032;-69
2023/03/26 04:10:42;;;;;;;31.20;5.33;;;;;;;21.29;39.47;100466.03;5068534;28;20444;-70
2023/03/26 04:13:08;;;;;;;34.20;5.00;;;;;;;21.71;39.01;100452.84;5054448;28;20028;-69
2023/03/26 04:15:34;;;;;;;37.80;5.30;;;;;;;21.20;40.09;100462.13;5069448;28;20385;-69
2023/03/26 04:18:00;;;;;;;37.40;5.33;;;;;;;21.48;39.06;100450.66;5068715;28;20525;-69
2023/03/26 04:20:26;;;;;;;35.33;5.13;;;;;;;21.49;39.32;100446.22;5068409;28;20020;-70
2023/03/26 04:22:51;;;;;;;31.93;4.47;;;;;;;21.13;39.92;100450.13;5068018;28;20036;-69
2023/03/26 04:25:17;;;;;;;28.57;4.77;;;;;;;21.57;38.76;100430.66;5069038;28;20029;-70
2023/03/26 04:27:43;;;;;;;24.43;4.90;;;;;;;21.23;38.82;100442.50;5067224;28;20043;-70
2023/03/26 04:30:14;;;;;;;26.20;5.37;;;;;;;22.05;38.32;100427.63;5068700;28;20491;-70
2023/03/26 04:32:41;;;;;;;32.20;5.23;;;;;;;21.72;38.38;100426.19;5068433;28;20025;-70
2023/03/26 04:35:10;;;;;;;29.93;4.50;;;;;;;21.62;38.42;100420.56;5066945;28;20033;-69
2023/03/26 04:37:41;;;;;;;42.23;5.97;;;;;;;21.01;39.84;100414.56;5068957;28;20021;-70
2023/03/26 04:40:13;;;;;;;53.60;6.73;;;;;;;21.23;39.38;100414.09;5067072;28;20036;-71
2023/03/26 04:42:44;;;;;;;24.52;5.35;;;;;;;21.45;39.17;100410.13;5069448;28;20099;-70
2023/03/26 04:45:14;;;;;;;33.38;4.65;;;;;;;21.55;38.77;100410.44;5064099;28;20039;-69
2023/03/26 04:47:40;;;;;;;29.07;6.07;;;;;;;21.89;38.31;100406.47;5065872;28;20114;-70
2023/03/26 04:50:08;;;;;;;32.87;5.37;;;;;;;21.30;39.21;100398.63;5068437;28;20032;-70
2023/03/26 04:52:34;;;;;;;26.40;5.17;;;;;;;21.90;38.23;100394.03;5069272;28;20104;-70
2023/03/26 04:54:59;;;;;;;25.67;5.80;;;;;;;21.65;38.45;100398.25;5066547;28;20135;-69
2023/03/26 04:57:38;;;;;;;35.87;5.97;;;;;;;21.65;38.29;100393.81;5068405;28;20154;-69
2023/03/26 05:00:13;;;;;;;29.40;5.23;;;;;;;21.78;38.25;100393.03;5070115;28;20024;-69
2023/03/26 05:02:40;;;;;;;30.37;5.53;;;;;;;21.29;38.90;100381.81;5068582;28;20094;-70
2023/03/26 05:05:06;;;;;;;28.80;4.97;;;;;;;21.59;38.80;100388.00;5067958;28;20563;-71
2023/03/26 05:07:32;;;;;;;32.07;5.30;;;;;;;21.62;39.07;100377.19;5068743;28;20024;-69
2023/03/26 05:09:57;;;;;;;30.43;5.33;;;;;;;21.09;39.80;100374.22;5068981;28;20032;-69
2023/03/26 05:12:22;;;;;;;36.07;6.77;;;;;;;21.14;39.48;100367.69;5067222;28;20119;-69
2023/03/26 05:14:48;;;;;;;30.57;6.27;;;;;;;20.82;39.99;100365.19;5069035;28;20035;-69
2023/03/26 05:17:17;;;;;;;41.10;7.57;;;;;;;20.65;40.69;100357.38;5065536;28;20032;-70
2023/03/26 05:19:43;;;;;;;39.63;6.53;;;;;;;19.01;43.69;100363.81;5068756;28;20028;-69
2023/03/26 05:22:09;;;;;;;38.47;6.53;;;;;;;20.21;41.89;100356.38;5068624;28;20392;-71
2023/03/26 05:24:34;;;;;;;42.97;7.73;;;;;;;20.26;41.65;100342.84;5069309;28;20035;-69
2023/03/26 05:27:00;;;;;;;32.80;6.07;;;;;;;20.49;40.86;100337.03;5062526;28;20054;-70
2023/03/26 05:29:25;;;;;;;42.87;6.63;;;;;;;20.48;41.49;100342.44;5067552;28;20088;-71
2023/03/26 05:31:51;;;;;;;39.63;6.83;;;;;;;20.38;41.63;100339.47;5067752;28;20056;-70
2023/03/26 05:34:18;;;;;;;46.83;7.70;;;;;;;20.23;41.69;100343.03;5065943;28;20020;-70
2023/03/26 05:36:43;;;;;;;36.63;8.27;;;;;;;21.21;39.60;100325.63;5066845;28;20044;-71
2023/03/26 05:39:09;;;;;;;38.43;7.77;;;;;;;20.24;41.85;100328.81;5053988;28;20016;-71
2023/03/26 05:41:34;;;;;;;33.97;8.13;;;;;;;20.25;41.59;100331.38;5070266;28;20092;-71
2023/03/26 05:44:00;;;;;;;44.00;8.70;;;;;;;20.12;41.62;100336.53;5067493;28;20028;-71
2023/03/26 05:46:26;;;;;;;40.37;8.33;;;;;;;19.57;43.17;100324.56;5068054;28;20025;-70
2023/03/26 05:48:52;;;;;;;36.70;7.43;;;;;;;20.01;42.19;100320.38;5068608;28;20056;-71
2023/03/26 05:51:18;;;;;;;37.17;8.13;;;;;;;19.98;41.94;100323.22;5066504;28;20392;-70
2023/03/26 05:53:43;;;;;;;36.23;8.03;;;;;;;19.69;42.65;100316.88;5066806;28;20067;-70
2023/03/26 05:56:09;;;;;;;37.70;8.37;;;;;;;19.88;42.82;100322.03;5066926;28;20401;-70
2023/03/26 05:58:35;;;;;;;43.87;7.83;;;;;;;20.16;42.34;100322.13;5065436;28;20028;-71
2023/03/26 06:01:07;;;;;;;40.57;8.50;;;;;;;20.18;42.12;100319.41;5063763;28;20361;-70
2023/03/26 06:03:38;;;;;;;47.13;8.32;;;;;;;19.75;42.57;100319.19;5065474;28;20030;-70
2023/03/26 06:06:08;;;;;;;38.30;7.03;;;;;;;19.54;42.82;100319.47;5066807;28;20502;-72
2023/03/26 06:08:33;;;;;;;42.00;8.60;;;;;;;19.29;43.64;100318.16;5059590;28;20035;-70
2023/03/26 06:11:00;;;;;;;38.73;7.70;;;;;;;20.00;42.70;100316.88;5066000;28;20121;-70
2023/03/26 06:13:26;;;;;;;42.90;8.13;;;;;;;19.20;43.91;100310.72;5065698;28;20063;-70
2023/03/26 06:15:51;;;;;;;48.07;7.83;;;;;;;19.58;43.49;100309.56;5063782;28;20064;-70
2023/03/26 06:18:18;;;;;;;38.97;7.63;;;;;;;19.13;43.40;100299.59;5065884;28;20039;-70
2023/03/26 06:20:44;;;;;;;37.67;7.70;;;;;;;20.08;42.50;100300.50;5067187;28;20187;-69
2023/03/26 06:23:09;;;;;;;37.10;7.57;;;;;;;19.40;43.54;100300.81;5067744;28;20540;-70
2023/03/26 06:25:36;;;;;;;46.20;7.90;;;;;;;19.77;43.24;100304.91;5064853;28;20043;-70
2023/03/26 06:28:01;;;;;;;38.93;8.40;;;;;;;20.04;42.57;100296.31;5065530;28;20051;-70
2023/03/26 06:30:27;;;;;;;44.47;9.43;;;;;;;20.14;41.89;100296.63;5067472;28;20107;-71
2023/03/26 06:32:52;;;;;;;42.40;8.33;;;;;;;19.64;43.43;100298.59;5067102;28;20044;-70
2023/03/26 06:35:18;;;;;;;38.33;6.93;;;;;;;19.26;43.61;100299.78;5066451;28;20028;-69
2023/03/26 06:37:43;;;;;;;46.27;8.00;;;;;;;19.98;42.69;100294.03;5066429;28;20102;-70
2023/03/26 06:40:09;;;;;;;40.80;7.03;;;;;;;19.64;42.74;100299.44;5068054;28;20029;-70
2023/03/26 06:42:34;;;;;;;35.87;7.47;;;;;;;19.94;41.90;100296.00;5067929;28;20396;-70
2023/03/26 06:45:00;;;;;;;35.97;7.90;;;;;;;20.44;41.57;100291.34;5067890;28;20143;-70
2023/03/26 06:47:26;;;;;;;35.83;7.57;;;;;;;20.16;42.06;100295.59;5066458;28;20127;-69
2023/03/26 06:49:51;;;;;;;32.23;7.20;;;;;;;20.03;42.61;100299.94;5067777;28;20453;-69
2023/03/26 06:52:16;;;;;;;29.70;6.97;;;;;;;19.79;43.01;100303.00;5068183;28;20035;-69
2023/03/26 06:54:43;;;;;;;35.63;7.27;;;;;;;19.93;42.33;100304.06;5059867;28;20044;-70
2023/03/26 06:57:08;;;;;;;37.50;7.47;;;;;;;20.59;40.92;100296.66;5062957;28;20075;-70
2023/03/26 06:59:33;;;;;;;33.43;6.17;;;;;;;19.33;43.47;100301.16;5066097;28;20037;-70
2023/03/26 07:01:59;;;;;;;32.37;6.77;;;;;;;19.59;42.50;100300.63;5068145;28;20465;-69
2023/03/26 07:04:24;;;;;;;28.33;5.83;;;;;;;19.41;43.29;100298.09;5067289;28;20028;-69
2023/03/26 07:06:50;;;;;;;34.90;7.23;;;;;;;19.28;43.47;100300.53;5068428;28;20064;-69
2023/03/26 07:09:15;;;;;;;32.07;6.50;;;;;;;19.10;44.30;100299.75;5067317;28;20037;-71
2023/03/26 07:11:40;;;;;;;29.53;5.83;;;;;;;19.23;44.01;100299.09;5064018;28;20033;-70
2023/03/26 07:14:06;;;;;;;41.27;8.30;;;;;;;19.29;44.08;100289.00;5065939;28;20549;-68
2023/03/26 07:16:31;;;;;;;36.10;6.90;;;;;;;18.78;44.96;100304.97;5066937;28;20020;-70
2023/03/26 07:18:56;;;;;;;29.33;6.50;;;;;;;19.61;43.48;100298.78;5065292;28;20028;-70
2023/03/26 07:21:22;;;;;;;32.17;6.57;;;;;;;19.23;44.26;100291.97;5067102;28;20608;-70
2023/03/26 07:23:48;;;;;;;37.17;6.70;;;;;;;19.24;44.71;100292.88;5067308;28;20051;-69
2023/03/26 07:26:41;;;;;;;37.07;6.73;;;;;;;20.29;41.89;100287.81;5068730;28;20399;-69
2023/03/26 07:29:16;;;;;;;35.90;7.60;;;;;;;20.30;42.37;100291.28;5066921;28;20032;-70
2023/03/26 07:31:53;;;;;;;34.63;6.83;;;;;;;20.69;41.75;100289.88;5066072;28;20041;-69
2023/03/26 07:34:50;;;;;;;28.63;6.23;;;;;;;20.69;41.44;100284.59;5066845;28;20036;-69
2023/03/26 07:37:40;;;;;;;33.77;8.73;;;;;;;20.08;43.03;100291.72;5064492;28;20036;-69
2023/03/26 07:40:24;;;;;;;38.07;7.90;;;;;;;20.61;42.10;100284.16;5064451;28;20121;-69
2023/03/26 07:43:07;;;;;;;26.07;7.27;;;;;;;20.77;41.64;100290.28;5063413;28;20524;-68
2023/03/26 07:45:41;;;;;;;30.60;7.93;;;;;;;20.28;43.30;100283.44;5066935;28;20028;-69
2023/03/26 07:48:39;;;;;;;43.67;7.80;;;;;;;20.87;42.20;100279.06;5066698;28;20072;-68
2023/03/26 07:51:05;;;;;;;32.97;7.03;;;;;;;20.35;42.63;100273.31;5065156;28;20052;-68
2023/03/26 07:53:31;;;;;;;28.43;7.53;;;;;;;20.74;42.46;100279.81;5063687;28;20059;-69
2023/03/26 07:56:20;;;;;;;30.90;6.53;;;;;;;21.13;41.98;100280.97;5064626;28;20469;-68
2023/03/26 07:59:04;;;;;;;27.10;6.53;;;;;;;20.87;42.05;100276.41;5066424;28;20032;-69
2023/03/26 08:01:48;;;;;;;29.97;6.83;;;;;;;21.24;41.15;100276.75;5064453;28;20028;-68
2023/03/26 08:04:48;;;;;;;36.63;6.60;;;;;;;20.38;42.22;100283.72;5063030;28;20033;-69
2023/03/26 08:07:24;;;;;;;28.53;5.83;;;;;;;21.09;41.41;100278.56;5024850;28;20029;-68
2023/03/26 08:10:14;;;;;;;30.80;6.47;;;;;;;20.85;41.99;100271.19;5059718;28;20045;-68
2023/03/26 08:12:52;;;;;;;33.37;6.70;;;;;;;20.23;43.54;100274.03;5061497;28;20473;-68
2023/03/26 08:15:40;;;;;;;33.77;6.97;;;;;;;20.68;41.73;100269.59;5060394;28;20392;-68
2023/03/26 08:18:47;;;;;;;39.53;7.17;;;;;;;20.12;43.64;100277.31;5068094;28;20333;-68
2023/03/26 08:21:46;;;;;;;32.07;6.43;;;;;;;20.28;43.25;100282.59;5058254;28;20035;-69
2023/03/26 08:24:21;;;;;;;24.17;6.37;;;;;;;19.73;44.50;100276.00;5060301;28;20028;-69
2023/03/26 08:27:04;;;;;;;36.67;7.30;;;;;;;20.66;42.33;100272.31;5068902;28;20135;-68
2023/03/26 08:29:44;;;;;;;31.60;6.63;;;;;;;20.35;43.10;100273.31;5069546;28;20503;-69
2023/03/26 08:32:14;;;;;;;23.70;5.53;;;;;;;19.92;43.64;100276.69;5061452;28;20028;-69
2023/03/26 08:34:39;;;;;;;29.37;6.37;;;;;;;20.17;43.73;100275.25;5070384;28;20055;-69
2023/03/26 08:37:05;;;;;;;30.57;7.13;;;;;;;19.94;44.18;100273.94;5069901;28;20449;-70
2023/03/26 08:39:30;;;;;;;29.30;6.37;;;;;;;19.47;44.66;100281.00;5071007;28;20028;-68
2023/03/26 08:42:31;;;;;;;28.97;6.10;;;;;;;20.63;43.10;100271.63;5069319;28;20085;-69
2023/03/26 08:45:17;;;;;;;30.90;6.87;;;;;;;21.27;41.70;100276.59;5056035;28;20506;-69
2023/03/26 08:47:55;;;;;;;29.60;7.20;;;;;;;20.23;43.45;100276.69;5071112;28;20054;-69
2023/03/26 08:50:48;;;;;;;33.33;7.70;;;;;;;20.02;43.75;100276.13;5067557;28;20044;-70
2023/03/26 08:53:35;;;;;;;26.00;7.65;;;;;;;20.25;43.85;100274.78;5070350;28;20040;-70
2023/03/26 08:56:30;;;;;;;25.50;7.17;;;;;;;19.66;45.12;100280.81;5059373;28;20043;-70
2023/03/26 08:59:41;;;;;;;24.43;7.33;;;;;;;20.16;44.22;100273.53;5063765;28;20508;-71
2023/03/26 09:02:21;;;;;;;30.90;8.30;;;;;;;19.82;45.03;100275.50;5052875;28;20967;-70
2023/03/26 09:04:52;;;;;;;34.57;9.00;;;;;;;20.39;43.83;100272.19;5063935;28;20150;-70
2023/03/26 09:07:30;;;;;;;32.20;9.07;;;;;;;19.73;45.17;100271.56;5065511;28;20028;-70
2023/03/26 09:10:32;;;;;;;32.97;8.87;;;;;;;19.84;44.97;100273.63;5063880;28;20070;-70
2023/03/26 09:13:22;;;;;;;33.40;9.27;;;;;;;20.27;44.53;100275.56;5070921;28;20043;-69
2023/03/26 09:16:07;;;;;;;33.47;10.03;;;;;;;20.73;43.37;100280.78;5066413;28;20094;-69
2023/03/26 09:18:57;;;;;;;33.13;10.10;;;;;;;19.91;44.84;100274.13;5070802;28;20472;-68
2023/03/26 09:21:35;;;;;;;28.43;10.30;;;;;;;20.11;44.84;100287.09;5051038;28;20047;-69
2023/03/26 09:24:18;;;;;;;26.00;9.50;;;;;;;19.53;45.46;100285.09;5070013;28;20028;-68
2023/03/26 09:26:53;;;;;;;18.60;7.07;;;;;;;18.87;47.19;100287.72;5078555;28;20117;-69
2023/03/26 09:29:42;;;;;;;37.63;7.70;;;;;;;19.23;46.28;100277.91;5069392;28;20056;-68
2023/03/26 09:32:35;;;;;;;27.10;7.73;;;;;;;18.87;47.16;100278.94;5056953;28;20392;-69
2023/03/26 09:35:13;;;;;;;24.45;8.07;;;;;;;19.93;45.29;100282.84;5067896;28;20024;-69
2023/03/26 09:38:10;;;;;;;28.07;8.17;;;;;;;20.30;45.47;100283.34;5068408;28;20491;-69
2023/03/26 09:40:58;;;;;;;25.23;8.23;;;;;;;20.17;44.11;100291.19;5068646;28;20059;-69
2023/03/26 09:43:42;;;;;;;26.00;7.53;;;;;;;20.10;44.40;100296.00;5068772;28;20070;-69
2023/03/26 09:46:16;;;;;;;23.63;7.43;;;;;;;20.80;43.60;100286.56;5065637;28;20024;-68
2023/03/26 09:49:21;;;;;;;19.83;6.60;;;;;;;20.57;42.99;100293.25;5069307;28;20052;-68
2023/03/26 09:51:58;;;;;;;31.33;8.80;;;;;;;19.33;58.70;100302.97;5069447;28;20385;-69
2023/03/26 09:54:43;;;;;;;26.53;8.53;;;;;;;18.40;49.89;100310.44;5068415;28;20062;-70
2023/03/26 09:57:34;;;;;;;22.50;8.50;;;;;;;18.63;48.80;100306.59;5067515;28;20035;-69
2023/03/26 10:00:27;;;;;;;24.47;8.60;;;;;;;19.60;47.29;100312.94;5067377;28;20044;-70
2023/03/26 10:03:20;;;;;;;21.95;7.43;;;;;;;20.06;45.68;100305.06;5068524;28;20032;-69
2023/03/26 10:05:57;;;;;;;19.90;7.88;;;;;;;19.02;46.46;100317.84;5068153;28;20032;-69
2023/03/26 10:09:02;;;;;;;20.03;6.60;;;;;;;18.57;48.06;100324.59;5067657;28;20043;-69
2023/03/26 10:11:55;;;;;;;22.23;8.63;;;;;;;18.47;48.54;100322.41;5044610;28;20040;-70
2023/03/26 10:14:27;;;;;;;22.90;8.37;;;;;;;18.86;48.38;100322.22;5067435;28;20028;-69
2023/03/26 10:17:04;;;;;;;18.83;9.00;;;;;;;19.36;46.28;100326.63;5069561;28;20040;-70
2023/03/26 10:19:52;;;;;;;26.07;10.63;;;;;;;19.07;46.44;100326.41;5067171;28;20139;-68
2023/03/26 10:22:39;;;;;;;19.67;9.67;;;;;;;19.02;47.01;100332.91;5068151;28;20472;-70
2023/03/26 10:25:10;;;;;;;20.73;8.70;;;;;;;18.58;48.02;100327.16;5066970;28;20040;-68
2023/03/26 10:28:04;;;;;;;19.00;8.20;;;;;;;17.67;49.88;100347.47;5068591;28;20373;-69
2023/03/26 10:31:04;;;;;;;22.90;9.07;;;;;;;19.50;47.06;100339.13;5068876;28;20097;-69
2023/03/26 10:33:36;;;;;;;22.60;9.43;;;;;;;18.98;48.00;100340.13;5067552;28;20119;-69
2023/03/26 10:36:08;;;;;;;23.67;9.45;;;;;;;17.71;50.46;100348.16;5069201;28;20040;-70
2023/03/26 10:38:50;;;;;;;23.30;8.73;;;;;;;16.99;53.32;100347.91;5068743;28;20081;-69
2023/03/26 10:41:21;;;;;;;21.53;8.83;;;;;;;17.97;50.76;100355.75;5067414;28;20107;-69
2023/03/26 10:44:49;;;;;;;25.77;9.30;;;;;;;18.56;49.28;100351.97;5067616;28;20432;-69
2023/03/26 10:47:46;;;;;;;21.67;9.67;;;;;;;16.74;52.76;100356.03;5007915;28;20045;-69
2023/03/26 10:50:42;;;;;;;29.60;8.43;;;;;;;18.67;49.02;100360.25;5065202;28;20083;-69
2023/03/26 10:53:45;;;;;;;17.57;7.27;;;;;;;18.31;48.67;100359.38;5067982;28;20488;-69
2023/03/26 10:56:31;;;;;;;22.00;7.03;;;;;;;16.90;50.86;100361.53;5066802;28;20028;-69
2023/03/26 10:59:04;;;;;;;20.97;6.40;;;;;;;16.26;53.21;100379.13;5067555;28;20028;-70
2023/03/26 11:02:16;;;;;;;23.98;6.10;;;;;;;16.68;52.62;100373.00;5066592;28;20025;-69
2023/03/26 11:04:48;;;;;;;23.10;5.60;;;;;;;17.24;52.93;100375.84;5066266;28;20032;-68
2023/03/26 11:07:31;;;;;;;17.07;5.30;;;;;;;16.81;52.47;100377.75;5067499;28;20544;-69
2023/03/26 11:10:15;;;;;;;24.77;5.73;;;;;;;18.36;48.97;100377.66;5068010;28;20035;-68
2023/03/26 11:12:57;;;;;;;21.83;5.93;;;;;;;17.90;49.13;100386.03;5066896;28;20044;-69
2023/03/26 11:15:59;;;;;;;30.87;6.00;;;;;;;17.30;51.05;100380.88;5066341;28;20137;-70
2023/03/26 11:18:43;;;;;;;25.30;6.53;;;;;;;16.83;50.32;100391.72;5068482;28;20503;-69
2023/03/26 11:21:25;;;;;;;18.70;4.63;;;;;;;17.24;52.69;100389.06;5066869;28;20495;-68
2023/03/26 11:24:22;;;;;;;22.77;5.65;;;;;;;18.04;49.58;100398.63;5065947;28;20032;-68
2023/03/26 11:26:54;;;;;;;16.17;3.60;;;;;;;16.17;52.16;100403.22;5066712;28;20124;-69
2023/03/26 11:29:26;;;;;;;24.35;5.07;;;;;;;18.55;48.69;100396.13;5067041;28;20085;-68
2023/03/26 11:32:00;;;;;;;27.30;3.93;;;;;;;17.94;49.56;100407.91;5067672;28;20468;-69
2023/03/26 11:35:21;;;;;;;29.63;5.40;;;;;;;17.38;49.81;100413.09;5067014;28;20036;-68
2023/03/26 11:37:52;;;;;;;29.50;7.00;;;;;;;16.84;51.90;100414.53;5038435;28;20037;-69
2023/03/26 11:40:28;;;;;;;22.03;4.23;;;;;;;17.26;48.96;100411.84;5048419;28;20536;-68
2023/03/26 11:43:06;;;;;;;28.23;4.73;;;;;;;17.15;49.61;100423.81;5055946;28;20499;-67
2023/03/26 11:45:37;;;;;;;25.27;4.63;;;;;;;17.09;51.20;100414.38;5065250;28;20115;-68
2023/03/26 11:48:09;;;;;;;23.30;4.23;;;;;;;16.90;51.21;100430.16;5067810;28;20058;-69